Time;durP1;ratioP1;P1;durP2;ratioP2;P2;SDS_P1;SDS_P2;PMS_P1;PMS_P2;Temp;Humidity;BMP_temperature;BMP_pressure;BME280_temperature;BME280_humidity;BME280_pressure;Samples;Min_cycle;Max_cycle;Signal;HPM_P1;HPM_P2
2023/10/04 00:01:10;;;;;;;8.40;2.70;;;21.50;67.70;;;;;;5001141;28;20509;-51
2023/10/04 00:03:38;;;;;;;8.25;2.63;;;21.40;68.40;;;;;;5005751;28;20034;-57
2023/10/04 00:06:04;;;;;;;10.50;2.60;;;21.40;68.20;;;;;;5001164;28;20017;-58
2023/10/04 00:08:29;;;;;;;5.93;2.47;;;21.40;68.40;;;;;;5009588;28;20045;-58
2023/10/04 00:10:55;;;;;;;7.60;2.40;;;21.40;68.20;;;;;;5008738;28;20121;-58
2023/10/04 00:13:21;;;;;;;8.30;2.65;;;21.40;67.30;;;;;;5009964;28;20071;-58
2023/10/04 00:15:47;;;;;;;5.72;2.20;;;21.40;68.50;;;;;;5007667;28;20079;-53
2023/10/04 00:18:15;;;;;;;7.47;2.22;;;21.40;68.80;;;;;;5002277;28;20025;-53
2023/10/04 00:20:43;;;;;;;7.05;2.53;;;21.40;68.10;;;;;;5008128;28;20369;-59
2023/10/04 00:23:10;;;;;;;9.25;2.88;;;21.40;67.70;;;;;;4999445;28;20027;-56
2023/10/04 00:25:37;;;;;;;8.68;2.38;;;21.40;68.40;;;;;;4990253;28;20038;-55
2023/10/04 00:28:04;;;;;;;8.93;2.50;;;21.40;68.20;;;;;;5007838;28;20022;-57
2023/10/04 00:30:30;;;;;;;9.32;2.40;;;21.40;68.10;;;;;;5008264;28;20026;-55
2023/10/04 00:32:59;;;;;;;8.75;2.80;;;21.40;67.90;;;;;;5006507;28;20489;-54
2023/10/04 00:35:25;;;;;;;8.52;2.13;;;21.40;67.70;;;;;;5029777;28;20031;-56
2023/10/04 00:38:00;;;;;;;8.48;2.30;;;21.40;67.70;;;;;;5007106;28;20022;-56
2023/10/04 00:40:31;;;;;;;8.38;2.30;;;21.40;67.60;;;;;;5009360;28;20549;-55
2023/10/04 00:43:01;;;;;;;8.68;2.90;;;21.40;67.80;;;;;;5009431;28;20431;-52
2023/10/04 00:45:31;;;;;;;5.60;2.10;;;21.40;68.40;;;;;;5003171;28;20038;-54
2023/10/04 00:47:59;;;;;;;7.28;2.40;;;21.40;67.70;;;;;;5005874;28;20026;-56
2023/10/04 00:50:32;;;;;;;8.02;2.38;;;21.40;67.70;;;;;;5008350;28;20105;-53
2023/10/04 00:53:10;;;;;;;7.75;2.40;;;21.40;67.50;;;;;;5013298;28;20393;-54
2023/10/04 00:55:39;;;;;;;8.48;2.22;;;21.40;67.30;;;;;;5014919;28;20300;-54
2023/10/04 00:58:06;;;;;;;9.20;2.55;;;21.40;67.10;;;;;;4991434;28;20026;-53
2023/10/04 01:00:33;;;;;;;6.57;2.25;;;21.40;67.10;;;;;;5003324;28;20033;-56
2023/10/04 01:02:59;;;;;;;6.43;2.10;;;21.40;67.30;;;;;;5001817;28;20058;-53
2023/10/04 01:05:27;;;;;;;6.90;2.03;;;21.40;67.50;;;;;;5001555;28;20030;-54
2023/10/04 01:07:54;;;;;;;6.13;2.33;;;21.40;67.30;;;;;;5006305;28;20428;-54
2023/10/04 01:10:24;;;;;;;8.35;2.22;;;21.40;66.90;;;;;;5008616;28;20481;-57
2023/10/04 01:12:51;;;;;;;7.85;2.40;;;21.40;67.40;;;;;;4991041;28;20422;-50
2023/10/04 01:15:39;;;;;;;7.72;2.05;;;21.40;67.70;;;;;;5008509;28;20094;-54
2023/10/04 01:18:07;;;;;;;8.48;2.20;;;21.30;67.50;;;;;;5008057;28;20475;-54
2023/10/04 01:20:34;;;;;;;10.20;2.25;;;21.40;66.50;;;;;;5006896;28;20029;-55
2023/10/04 01:23:05;;;;;;;6.60;2.10;;;21.40;65.60;;;;;;5001305;28;20031;-51
2023/10/04 01:25:36;;;;;;;12.15;2.83;;;21.40;66.50;;;;;;5004500;28;20057;-57
2023/10/04 01:28:17;;;;;;;10.13;2.28;;;21.40;66.20;;;;;;4994111;28;20105;-58
2023/10/04 01:30:51;;;;;;;11.50;2.63;;;21.40;65.90;;;;;;5008266;28;20358;-58
2023/10/04 01:33:20;;;;;;;12.77;2.22;;;21.40;65.40;;;;;;5007928;28;20061;-57
2023/10/04 01:35:54;;;;;;;11.38;2.55;;;21.40;66.30;;;;;;5007006;28;20022;-55
2023/10/04 01:38:25;;;;;;;6.10;2.28;;;21.40;67.10;;;;;;5007220;28;20404;-54
2023/10/04 01:40:52;;;;;;;8.95;2.50;;;21.40;67.10;;;;;;5008231;28;20478;-55
2023/10/04 01:43:19;;;;;;;9.32;2.20;;;21.30;66.80;;;;;;4999391;28;20026;-51
2023/10/04 01:45:50;;;;;;;13.43;2.42;;;21.30;66.70;;;;;;5007976;28;20109;-56
2023/10/04 01:48:20;;;;;;;7.72;2.65;;;21.30;66.30;;;;;;5000003;28;20116;-59
2023/10/04 01:50:52;;;;;;;7.30;2.03;;;21.30;66.20;;;;;;5007879;28;20029;-58
2023/10/04 01:53:21;;;;;;;10.82;2.50;;;21.30;66.00;;;;;;5034413;28;20082;-57
2023/10/04 01:55:47;;;;;;;8.60;2.47;;;21.30;65.50;;;;;;5007718;28;20030;-55
2023/10/04 01:58:15;;;;;;;12.75;2.38;;;21.30;65.60;;;;;;5007158;28;20047;-51
2023/10/04 02:00:41;;;;;;;7.93;2.45;;;21.30;65.30;;;;;;5002207;28;20033;-55
2023/10/04 02:03:10;;;;;;;8.40;2.83;;;21.30;65.40;;;;;;5007228;28;20026;-55
2023/10/04 02:05:40;;;;;;;8.15;2.30;;;21.30;66.00;;;;;;5005108;28;20054;-49
2023/10/04 02:08:08;;;;;;;11.30;2.65;;;21.30;65.10;;;;;;5004956;28;20018;-53
2023/10/04 02:10:34;;;;;;;8.73;2.55;;;21.30;65.00;;;;;;5007779;28;20385;-58
2023/10/04 02:13:00;;;;;;;9.25;2.72;;;21.30;64.90;;;;;;5007230;28;20109;-54
2023/10/04 02:15:26;;;;;;;10.27;2.65;;;21.30;64.80;;;;;;5007620;28;20034;-58
2023/10/04 02:17:53;;;;;;;9.32;2.35;;;21.30;64.50;;;;;;5007008;28;20029;-58
2023/10/04 02:20:28;;;;;;;8.20;2.50;;;21.30;65.10;;;;;;5000783;28;20038;-55
2023/10/04 02:23:00;;;;;;;9.50;2.40;;;21.30;65.00;;;;;;5007389;28;20030;-59
2023/10/04 02:25:26;;;;;;;8.30;2.25;;;21.20;64.80;;;;;;5004567;28;20034;-59
2023/10/04 02:27:52;;;;;;;7.47;2.40;;;21.30;64.70;;;;;;5007404;28;20049;-60
2023/10/04 02:30:23;;;;;;;10.70;2.55;;;21.20;64.40;;;;;;5004972;28;20405;-57
2023/10/04 02:32:52;;;;;;;7.85;2.10;;;21.20;64.40;;;;;;5004242;28;20067;-58
2023/10/04 02:35:34;;;;;;;6.85;2.40;;;21.30;64.50;;;;;;4987194;28;20031;-59
2023/10/04 02:38:09;;;;;;;7.22;2.58;;;21.30;64.70;;;;;;5004017;28;20461;-60
2023/10/04 02:40:37;;;;;;;7.53;2.30;;;21.20;64.40;;;;;;5001656;28;20026;-60
2023/10/04 02:43:07;;;;;;;10.38;2.25;;;21.20;64.70;;;;;;5003298;28;20533;-60
2023/10/04 02:45:36;;;;;;;8.67;2.30;;;21.20;64.40;;;;;;5005496;28;20030;-59
2023/10/04 02:48:09;;;;;;;8.40;2.08;;;21.20;64.40;;;;;;5004187;28;20775;-57
2023/10/04 02:50:39;;;;;;;6.03;2.30;;;21.20;65.20;;;;;;5004935;28;20485;-56
2023/10/04 02:53:07;;;;;;;10.20;2.40;;;21.20;64.50;;;;;;5014230;28;20015;-56
2023/10/04 02:55:35;;;;;;;12.77;2.65;;;21.20;64.20;;;;;;4987465;28;20099;-55
2023/10/04 02:58:05;;;;;;;9.68;2.60;;;21.20;64.10;;;;;;5004452;28;20107;-58
2023/10/04 03:00:31;;;;;;;8.70;2.05;;;21.20;64.30;;;;;;4988334;28;20041;-53
2023/10/04 03:02:57;;;;;;;6.97;2.45;;;21.20;64.40;;;;;;5002011;28;20035;-58
2023/10/04 03:05:29;;;;;;;9.07;2.42;;;21.20;64.20;;;;;;4987901;28;20034;-60
2023/10/04 03:07:55;;;;;;;10.18;2.60;;;21.20;64.20;;;;;;4999217;28;20018;-59
2023/10/04 03:10:27;;;;;;;9.25;2.20;;;21.20;64.50;;;;;;5005871;28;20096;-57
2023/10/04 03:12:59;;;;;;;7.75;1.85;;;21.20;64.00;;;;;;5007463;28;20120;-59
2023/10/04 03:15:28;;;;;;;6.85;2.30;;;21.20;64.10;;;;;;5008991;28;20034;-58
2023/10/04 03:18:00;;;;;;;7.15;2.38;;;21.20;64.30;;;;;;4992851;28;20071;-57
2023/10/04 03:20:30;;;;;;;6.03;2.35;;;21.20;64.40;;;;;;5009221;28;20063;-58
2023/10/04 03:23:01;;;;;;;5.18;1.95;;;21.20;64.00;;;;;;5009205;28;20029;-59
2023/10/04 03:25:28;;;;;;;7.63;2.30;;;21.20;64.20;;;;;;5008798;28;20030;-58
2023/10/04 03:27:56;;;;;;;7.93;2.72;;;21.20;63.80;;;;;;5002509;28;20037;-58
2023/10/04 03:30:23;;;;;;;7.15;2.38;;;21.20;64.10;;;;;;5004032;28;20030;-58
2023/10/04 03:32:55;;;;;;;5.80;2.22;;;21.20;63.90;;;;;;5004712;28;20102;-57
2023/10/04 03:35:26;;;;;;;5.45;2.08;;;21.10;64.00;;;;;;4996653;28;20075;-54
2023/10/04 03:38:01;;;;;;;9.23;2.63;;;21.10;63.90;;;;;;4992446;28;20033;-58
2023/10/04 03:40:37;;;;;;;7.22;2.40;;;21.10;64.40;;;;;;5006455;28;20700;-57
2023/10/04 03:43:08;;;;;;;6.88;2.78;;;21.10;64.40;;;;;;5010234;28;20483;-56
2023/10/04 03:45:39;;;;;;;10.75;2.50;;;21.10;64.70;;;;;;4999983;28;20549;-57
2023/10/04 03:48:15;;;;;;;6.80;2.38;;;21.10;64.70;;;;;;5000412;28;20033;-57
2023/10/04 03:50:46;;;;;;;9.63;2.17;;;21.20;64.10;;;;;;5004359;28;20034;-59
2023/10/04 03:53:13;;;;;;;10.13;2.38;;;21.10;64.30;;;;;;5000712;28;20032;-54
2023/10/04 03:55:41;;;;;;;8.48;2.45;;;21.20;64.60;;;;;;5008202;28;20396;-58
2023/10/04 03:58:07;;;;;;;7.68;2.67;;;21.20;64.40;;;;;;5001632;28;20030;-58
2023/10/04 04:00:34;;;;;;;6.57;2.30;;;21.10;64.50;;;;;;5004354;28;20052;-58
2023/10/04 04:03:00;;;;;;;7.45;2.25;;;21.20;64.30;;;;;;5027028;28;20030;-58
2023/10/04 04:05:26;;;;;;;6.82;2.58;;;21.20;64.60;;;;;;5024902;28;20034;-58
2023/10/04 04:07:52;;;;;;;5.60;2.42;;;21.20;64.20;;;;;;5009467;28;20034;-59
2023/10/04 04:10:20;;;;;;;12.80;2.63;;;21.20;65.10;;;;;;5004978;28;20030;-59
2023/10/04 04:12:46;;;;;;;7.85;2.63;;;21.10;64.00;;;;;;4998521;28;20049;-58
2023/10/04 04:15:23;;;;;;;6.82;2.45;;;21.10;64.50;;;;;;5008249;28;20034;-58
2023/10/04 04:17:50;;;;;;;9.02;2.70;;;21.20;64.20;;;;;;4984519;28;20397;-59
2023/10/04 04:20:19;;;;;;;8.25;2.85;;;21.10;64.20;;;;;;5005256;28;20049;-59
2023/10/04 04:22:51;;;;;;;9.23;2.65;;;21.10;64.30;;;;;;5006672;28;20657;-60
2023/10/04 04:25:19;;;;;;;8.45;2.40;;;21.10;64.40;;;;;;5003395;28;20566;-58
2023/10/04 04:27:51;;;;;;;6.72;2.53;;;21.10;64.10;;;;;;5007609;28;20030;-60
2023/10/04 04:30:23;;;;;;;8.82;2.50;;;21.10;64.60;;;;;;5004499;28;20030;-59
2023/10/04 04:32:56;;;;;;;5.43;2.50;;;21.10;64.40;;;;;;5007284;28;20396;-55
2023/10/04 04:36:16;;;;;;;8.07;2.63;;;21.10;64.70;;;;;;5026543;28;20029;-54
2023/10/04 04:38:21;;;;;;;9.35;2.70;;;21.10;64.20;;;;;;5001031;28;20042;-59
2023/10/04 04:40:50;;;;;;;11.65;5.03;;;21.10;63.80;;;;;;5001112;28;20033;-56
2023/10/04 04:43:27;;;;;;;13.85;4.32;;;21.10;63.60;;;;;;5004835;28;20034;-56
2023/10/04 04:45:57;;;;;;;9.57;3.58;;;21.10;63.60;;;;;;5007056;28;20489;-59
2023/10/04 04:48:38;;;;;;;7.38;3.38;;;21.10;63.80;;;;;;5004109;23;20139;-65
2023/10/04 04:53:40;;;;;;;15.38;3.72;;;21.10;63.30;;;;;;5006256;28;20101;-65
2023/10/04 04:56:14;;;;;;;8.10;3.63;;;21.10;63.20;;;;;;5010394;28;20045;-65
2023/10/04 04:58:44;;;;;;;14.98;5.25;;;21.10;63.00;;;;;;5044645;28;20051;-65
2023/10/04 05:01:11;;;;;;;12.38;3.85;;;21.10;63.00;;;;;;4991283;28;20026;-66
2023/10/04 05:03:42;;;;;;;9.90;3.92;;;21.10;62.90;;;;;;4948700;28;20031;-66
2023/10/04 05:06:15;;;;;;;10.20;3.80;;;21.20;62.90;;;;;;5007952;28;20046;-65
2023/10/04 05:08:42;;;;;;;8.40;3.33;;;21.10;62.90;;;;;;5011671;28;20038;-65
2023/10/04 05:11:09;;;;;;;8.88;3.60;;;21.10;62.90;;;;;;5026869;28;20032;-65
2023/10/04 05:13:36;;;;;;;10.10;3.90;;;21.10;62.90;;;;;;5028961;28;20511;-65
2023/10/04 05:16:03;;;;;;;11.45;3.33;;;21.10;62.80;;;;;;5009808;28;20016;-65
2023/10/04 05:18:29;;;;;;;9.52;3.50;;;21.10;63.40;;;;;;5010765;28;20034;-65
2023/10/04 05:20:55;;;;;;;8.25;3.25;;;21.10;62.90;;;;;;5018623;28;20022;-65
2023/10/04 05:23:25;;;;;;;9.05;3.15;;;21.10;62.80;;;;;;5029018;28;20496;-65
2023/10/04 05:25:53;;;;;;;8.60;2.97;;;21.10;62.90;;;;;;5024289;28;20025;-65
2023/10/04 05:28:19;;;;;;;10.27;3.20;;;21.10;63.00;;;;;;5004763;28;20035;-65
2023/10/04 05:30:46;;;;;;;8.95;3.33;;;21.10;62.70;;;;;;5008372;28;20119;-64
2023/10/04 05:33:16;;;;;;;8.50;2.70;;;21.10;62.90;;;;;;4968294;28;20050;-65
2023/10/04 05:35:47;;;;;;;10.38;3.05;;;21.10;63.00;;;;;;4968984;28;20049;-65
2023/10/04 05:38:14;;;;;;;10.75;3.15;;;21.10;62.80;;;;;;4978278;28;20119;-65
2023/10/04 05:40:45;;;;;;;8.68;2.88;;;21.10;63.10;;;;;;5011084;28;20031;-65
2023/10/04 05:43:14;;;;;;;8.02;3.03;;;21.10;62.90;;;;;;4957456;28;20423;-65
2023/10/04 05:45:42;;;;;;;11.68;2.88;;;21.10;63.00;;;;;;5005668;28;20031;-65
2023/10/04 05:48:09;;;;;;;10.77;3.50;;;21.10;63.20;;;;;;4987686;28;20112;-65
2023/10/04 05:50:35;;;;;;;13.80;3.50;;;21.10;63.30;;;;;;5008398;28;20445;-65
2023/10/04 05:53:07;;;;;;;7.75;3.15;;;21.10;63.10;;;;;;4968002;28;20112;-65
2023/10/04 05:55:37;;;;;;;8.68;2.95;;;21.10;63.20;;;;;;4968823;28;20035;-65
2023/10/04 05:58:07;;;;;;;14.45;3.20;;;21.10;63.30;;;;;;4960884;28;20037;-65
2023/10/04 06:00:35;;;;;;;13.85;3.65;;;21.20;63.60;;;;;;4968454;28;20088;-65
2023/10/04 06:03:06;;;;;;;14.20;3.08;;;21.10;63.10;;;;;;4968182;28;20092;-65
2023/10/04 06:05:37;;;;;;;12.18;2.80;;;21.10;63.10;;;;;;4968185;28;20498;-66
2023/10/04 06:08:26;;;;;;;12.30;2.78;;;21.20;63.80;;;;;;4996390;28;20478;-64
2023/10/04 06:10:53;;;;;;;;;;;21.20;63.10;;;;;;4970794;28;20375;-65
2023/10/04 06:13:22;;;;;;;15.40;2.83;;;21.20;64.20;;;;;;5029284;28;19915;-65
2023/10/04 06:15:49;;;;;;;10.40;3.13;;;21.20;63.80;;;;;;5027833;28;20438;-65
2023/10/04 06:18:19;;;;;;;23.90;3.70;;;21.20;64.20;;;;;;5050914;28;20123;-65
2023/10/04 06:20:45;;;;;;;;;;;21.20;63.50;;;;;;5011457;28;20132;-67
2023/10/04 06:23:14;;;;;;;31.25;4.03;;;21.20;63.20;;;;;;5070601;28;19969;-67
2023/10/04 06:25:42;;;;;;;18.58;3.58;;;21.20;63.80;;;;;;5070949;28;20029;-66
2023/10/04 06:28:11;;;;;;;26.35;3.95;;;21.30;64.00;;;;;;5070896;28;20054;-67
2023/10/04 06:30:38;;;;;;;31.33;4.90;;;21.30;64.50;;;;;;5018862;28;20510;-67
2023/10/04 06:33:06;;;;;;;32.90;4.97;;;21.20;66.50;;;;;;5027085;28;20020;-63
2023/10/04 06:35:32;;;;;;;26.95;4.63;;;21.20;67.50;;;;;;5068900;28;20372;-65
2023/10/04 06:38:06;;;;;;;18.05;3.53;;;21.20;65.10;;;;;;5016311;28;20032;-65
2023/10/04 06:40:32;;;;;;;29.95;4.28;;;21.20;66.20;;;;;;5042756;28;20494;-65
2023/10/04 06:43:01;;;;;;;22.27;5.32;;;21.20;65.80;;;;;;5043267;28;20484;-65
2023/10/04 06:45:27;;;;;;;25.85;4.53;;;21.30;67.20;;;;;;5009720;28;20039;-65
2023/10/04 06:47:55;;;;;;;14.55;3.53;;;21.30;66.10;;;;;;5044180;28;20045;-66
2023/10/04 06:50:28;;;;;;;17.52;4.05;;;21.40;66.40;;;;;;5027263;28;20565;-65
2023/10/04 06:52:59;;;;;;;25.10;4.85;;;21.40;66.50;;;;;;5068980;28;20024;-65
2023/10/04 06:55:26;;;;;;;27.23;5.25;;;21.40;67.70;;;;;;4963740;28;20114;-65
2023/10/04 06:57:53;;;;;;;27.95;4.30;;;21.40;67.90;;;;;;4956044;28;20028;-65
2023/10/04 07:00:26;;;;;;;23.83;4.47;;;21.40;67.50;;;;;;4965307;28;20027;-65
2023/10/04 07:02:59;;;;;;;19.10;3.97;;;21.40;66.90;;;;;;4963432;28;20376;-64
2023/10/04 07:05:38;;;;;;;21.80;4.30;;;21.40;67.30;;;;;;5028378;28;20037;-65
2023/10/04 07:08:06;;;;;;;28.30;5.10;;;21.40;68.30;;;;;;4992611;28;20023;-64
2023/10/04 07:10:33;;;;;;;35.30;5.22;;;21.40;69.10;;;;;;5010224;28;20093;-64
2023/10/04 07:13:01;;;;;;;23.92;4.88;;;21.40;68.50;;;;;;4967648;28;20077;-64
2023/10/04 07:15:30;;;;;;;22.20;5.03;;;21.40;71.30;;;;;;5028038;28;20539;-65
2023/10/04 07:17:57;;;;;;;22.30;5.40;;;21.30;72.20;;;;;;5070441;28;20104;-65
2023/10/04 07:20:24;;;;;;;17.02;4.45;;;21.30;72.70;;;;;;5070430;28;20048;-65
2023/10/04 07:22:59;;;;;;;23.25;5.78;;;21.30;72.90;;;;;;5070164;28;20044;-64
2023/10/04 07:25:30;;;;;;;22.85;5.22;;;21.30;72.00;;;;;;5070278;28;20522;-65
2023/10/04 07:27:59;;;;;;;23.10;5.32;;;21.30;72.00;;;;;;5070265;28;20033;-65
2023/10/04 07:30:26;;;;;;;21.05;5.32;;;21.30;71.50;;;;;;5070291;28;20025;-64
2023/10/04 07:32:52;;;;;;;24.17;6.72;;;21.30;72.10;;;;;;5070024;28;20027;-65
2023/10/04 07:35:21;;;;;;;24.40;6.20;;;21.30;72.20;;;;;;5070386;28;20396;-65
2023/10/04 07:37:47;;;;;;;23.73;6.45;;;21.30;72.60;;;;;;5068911;28;20060;-65
2023/10/04 07:40:18;;;;;;;21.10;5.22;;;21.30;71.80;;;;;;5070389;28;20028;-64
2023/10/04 07:42:46;;;;;;;28.73;6.15;;;21.30;71.30;;;;;;5070608;28;20491;-65
2023/10/04 07:45:13;;;;;;;24.48;5.93;;;21.30;71.40;;;;;;5070108;28;20036;-64
2023/10/04 07:47:42;;;;;;;22.05;6.20;;;21.30;71.50;;;;;;5070307;28;20028;-65
2023/10/04 07:50:11;;;;;;;18.80;5.70;;;21.30;70.00;;;;;;5070262;28;20070;-65
2023/10/04 07:52:38;;;;;;;24.75;6.53;;;21.30;70.40;;;;;;5069946;28;20111;-64
2023/10/04 07:55:17;;;;;;;24.25;6.30;;;21.30;70.30;;;;;;5070061;28;20033;-65
2023/10/04 07:57:47;;;;;;;21.42;5.57;;;21.30;69.60;;;;;;5070177;28;20025;-65
2023/10/04 08:00:15;;;;;;;19.65;5.60;;;21.30;69.60;;;;;;5072164;28;20114;-65
2023/10/04 08:02:51;;;;;;;21.65;5.60;;;21.30;69.80;;;;;;5073370;28;20578;-65
2023/10/04 08:05:19;;;;;;;21.42;5.68;;;21.30;69.10;;;;;;5073732;28;20495;-64
2023/10/04 08:07:49;;;;;;;21.85;5.35;;;21.30;69.30;;;;;;5073575;28;20028;-64
2023/10/04 08:10:16;;;;;;;17.85;5.93;;;21.30;69.00;;;;;;5073355;28;20073;-64
2023/10/04 08:12:44;;;;;;;21.10;6.32;;;21.30;69.20;;;;;;5073162;28;20499;-65
2023/10/04 08:15:14;;;;;;;21.88;6.07;;;21.40;68.70;;;;;;5073434;28;20040;-65
2023/10/04 08:17:43;;;;;;;20.52;5.45;;;21.40;68.90;;;;;;5073476;28;20576;-64
2023/10/04 08:20:14;;;;;;;24.50;6.75;;;21.40;69.00;;;;;;5073437;28;20033;-65
2023/10/04 08:22:41;;;;;;;23.52;6.32;;;21.40;69.20;;;;;;5073002;28;20047;-65
2023/10/04 08:25:10;;;;;;;20.48;6.10;;;21.40;69.10;;;;;;5071925;28;20503;-64
2023/10/04 08:27:37;;;;;;;24.38;6.63;;;21.40;68.90;;;;;;5073299;28;20070;-65
2023/10/04 08:30:08;;;;;;;18.90;6.43;;;21.40;69.30;;;;;;5073190;28;20044;-65
2023/10/04 08:32:34;;;;;;;22.27;5.82;;;21.40;69.30;;;;;;5072888;28;20024;-65
2023/10/04 08:35:00;;;;;;;22.20;6.07;;;21.40;69.10;;;;;;5072941;28;20059;-65
2023/10/04 08:37:27;;;;;;;18.95;4.95;;;21.40;69.10;;;;;;5072870;28;20037;-64
2023/10/04 08:39:53;;;;;;;20.27;5.75;;;21.40;69.50;;;;;;5071792;28;20389;-65
2023/10/04 08:42:19;;;;;;;20.02;6.10;;;21.40;69.30;;;;;;5072740;28;20292;-65
2023/10/04 08:44:48;;;;;;;16.88;5.45;;;21.40;69.60;;;;;;5072960;28;20798;-65
2023/10/04 08:47:16;;;;;;;17.08;5.95;;;21.40;69.40;;;;;;5071554;28;20028;-65
2023/10/04 08:49:54;;;;;;;19.42;5.60;;;21.40;69.00;;;;;;5073053;28;20032;-65
2023/10/04 08:52:30;;;;;;;16.17;5.60;;;21.40;69.40;;;;;;5072689;28;20024;-65
2023/10/04 08:55:06;;;;;;;20.40;5.95;;;21.40;69.40;;;;;;5072828;28;20025;-64
2023/10/04 08:57:36;;;;;;;20.92;6.07;;;21.40;69.30;;;;;;5072727;28;20035;-64
2023/10/04 09:00:13;;;;;;;14.85;4.68;;;21.40;69.40;;;;;;5072571;28;20056;-65
2023/10/04 09:02:47;;;;;;;19.85;5.25;;;21.40;69.40;;;;;;5072349;28;20087;-64
2023/10/04 09:05:16;;;;;;;18.02;5.25;;;21.40;69.50;;;;;;5072415;28;20029;-65
2023/10/04 09:07:45;;;;;;;17.60;4.80;;;21.30;69.40;;;;;;5072764;28;20441;-64
2023/10/04 09:10:16;;;;;;;19.55;5.45;;;21.40;69.30;;;;;;5071901;28;20028;-64
2023/10/04 09:12:43;;;;;;;16.75;5.13;;;21.40;69.20;;;;;;5072107;28;20048;-65
2023/10/04 09:15:13;;;;;;;15.73;4.72;;;21.40;69.40;;;;;;5072312;28;20028;-64
2023/10/04 09:17:55;;;;;;;16.52;4.47;;;21.30;68.80;;;;;;5072325;28;20089;-65
2023/10/04 09:20:30;;;;;;;16.98;5.15;;;21.40;68.50;;;;;;5072452;28;20400;-64
2023/10/04 09:22:59;;;;;;;19.05;5.00;;;21.40;69.20;;;;;;5071766;28;20380;-64
2023/10/04 09:25:36;;;;;;;15.48;4.85;;;21.40;69.20;;;;;;5072206;28;20118;-65
2023/10/04 09:28:01;;;;;;;13.82;4.35;;;21.40;69.30;;;;;;5072073;28;20047;-65
2023/10/04 09:30:28;;;;;;;16.23;4.45;;;21.40;69.30;;;;;;5070779;28;20480;-65
2023/10/04 09:32:54;;;;;;;20.70;4.95;;;21.40;69.10;;;;;;5071779;28;20028;-64
2023/10/04 09:35:20;;;;;;;13.88;4.30;;;21.40;68.60;;;;;;5071960;28;20040;-65
2023/10/04 09:37:50;;;;;;;17.42;5.05;;;21.40;68.90;;;;;;5072279;28;20480;-65
2023/10/04 09:40:17;;;;;;;17.80;4.13;;;21.40;69.10;;;;;;5072185;28;20116;-65
2023/10/04 09:42:55;;;;;;;15.38;4.32;;;21.40;68.80;;;;;;5071760;28;20032;-64
2023/10/04 09:45:26;;;;;;;18.38;4.63;;;21.40;69.10;;;;;;5071673;28;20031;-65
2023/10/04 09:47:53;;;;;;;17.95;4.15;;;21.40;68.40;;;;;;5071430;28;20407;-64
2023/10/04 09:50:24;;;;;;;14.95;4.85;;;21.40;68.60;;;;;;5070340;28;20028;-65
2023/10/04 09:52:52;;;;;;;12.90;4.15;;;21.40;68.50;;;;;;5071346;28;20025;-65
2023/10/04 09:55:21;;;;;;;15.25;4.35;;;21.40;67.80;;;;;;5071704;28;20115;-65
2023/10/04 09:57:48;;;;;;;14.02;3.92;;;21.40;68.50;;;;;;5071744;28;20025;-64
2023/10/04 10:00:18;;;;;;;13.75;4.40;;;21.40;69.10;;;;;;5071655;28;20046;-65
2023/10/04 10:02:51;;;;;;;11.85;4.20;;;21.40;68.50;;;;;;5071845;28;20025;-64
2023/10/04 10:05:26;;;;;;;12.48;3.63;;;21.40;68.30;;;;;;5070322;28;20503;-65
2023/10/04 10:07:54;;;;;;;11.73;3.60;;;21.40;68.40;;;;;;5071137;28;20120;-64
2023/10/04 10:10:21;;;;;;;13.52;4.05;;;21.40;68.40;;;;;;5071496;28;20078;-65
2023/10/04 10:12:51;;;;;;;10.82;3.78;;;21.40;68.40;;;;;;5071742;28;20199;-65
2023/10/04 10:15:21;;;;;;;13.93;3.92;;;21.40;68.40;;;;;;5071812;28;20116;-65
2023/10/04 10:17:48;;;;;;;11.43;3.80;;;21.40;68.50;;;;;;5071132;28;20024;-64
2023/10/04 10:20:16;;;;;;;11.35;4.13;;;21.40;68.60;;;;;;5071016;28;20112;-64
2023/10/04 10:22:57;;;;;;;11.00;3.33;;;21.40;68.40;;;;;;5068913;28;20029;-64
2023/10/04 10:25:25;;;;;;;10.70;3.65;;;21.40;68.50;;;;;;5071080;28;20032;-64
2023/10/04 10:28:02;;;;;;;10.27;3.65;;;21.40;68.50;;;;;;5071101;28;20028;-64
2023/10/04 10:30:30;;;;;;;10.93;3.55;;;21.40;68.30;;;;;;5070994;28;20070;-64
2023/10/04 10:32:57;;;;;;;13.50;3.70;;;21.40;68.50;;;;;;5070778;28;20046;-64
2023/10/04 10:35:59;;;;;;;10.18;3.30;;;21.40;68.50;;;;;;5070919;28;20050;-64
2023/10/04 10:38:28;;;;;;;9.68;3.20;;;21.30;68.50;;;;;;5048385;28;20056;-65
2023/10/04 10:40:54;;;;;;;12.23;3.67;;;21.30;68.50;;;;;;5048699;28;20045;-65
2023/10/04 10:43:20;;;;;;;12.20;3.88;;;21.30;68.50;;;;;;5048359;28;20037;-65
2023/10/04 10:45:46;;;;;;;9.85;3.42;;;21.30;68.50;;;;;;5048566;28;20029;-64
2023/10/04 10:48:13;;;;;;;10.00;3.20;;;21.30;68.70;;;;;;5052172;22;20062;-56
2023/10/04 10:50:41;;;;;;;10.43;3.47;;;21.30;68.50;;;;;;5033144;28;20213;-58
2023/10/04 10:53:10;;;;;;;12.52;3.75;;;21.30;68.60;;;;;;5007828;28;20405;-56
2023/10/04 10:55:40;;;;;;;11.80;3.42;;;21.30;68.50;;;;;;5007973;28;20038;-55
2023/10/04 10:58:07;;;;;;;11.77;3.50;;;21.30;68.50;;;;;;5007979;28;20108;-56
2023/10/04 11:00:36;;;;;;;10.48;3.50;;;21.30;68.50;;;;;;5008004;28;20113;-58
2023/10/04 11:03:05;;;;;;;10.98;3.75;;;21.30;68.40;;;;;;5007684;28;20557;-58
2023/10/04 11:05:31;;;;;;;9.52;3.50;;;21.30;68.30;;;;;;4973893;28;20095;-57
2023/10/04 11:07:58;;;;;;;13.45;3.55;;;21.30;68.40;;;;;;5007790;28;20113;-56
2023/10/04 11:10:25;;;;;;;9.82;3.65;;;21.30;68.30;;;;;;5008045;28;20037;-56
2023/10/04 11:12:54;;;;;;;11.23;3.65;;;21.30;68.30;;;;;;5007590;28;20030;-55
2023/10/04 11:15:23;;;;;;;10.35;2.92;;;21.30;68.30;;;;;;5008089;28;20038;-58
2023/10/04 11:17:52;;;;;;;10.55;3.00;;;21.30;68.20;;;;;;5007910;28;20516;-58
2023/10/04 11:20:20;;;;;;;7.47;2.70;;;21.30;68.20;;;;;;5007944;28;20033;-56
2023/10/04 11:22:48;;;;;;;9.43;3.28;;;21.30;68.10;;;;;;5007666;28;20565;-57
2023/10/04 11:25:14;;;;;;;9.60;2.72;;;21.30;68.10;;;;;;5007746;28;20046;-58
2023/10/04 11:27:43;;;;;;;7.60;2.85;;;21.30;68.10;;;;;;5007838;28;20036;-56
2023/10/04 11:30:11;;;;;;;9.85;2.80;;;21.30;68.20;;;;;;5006936;28;20026;-57
2023/10/04 11:32:41;;;;;;;9.70;3.20;;;21.30;68.10;;;;;;5007619;28;20025;-56
2023/10/04 11:35:08;;;;;;;7.75;3.20;;;21.30;68.10;;;;;;4993484;28;20026;-58
2023/10/04 11:37:43;;;;;;;12.52;3.40;;;21.30;68.00;;;;;;5010830;28;20523;-55
2023/10/04 11:40:13;;;;;;;10.68;3.92;;;21.30;68.00;;;;;;5010926;28;20440;-56
2023/10/04 11:42:40;;;;;;;10.85;3.25;;;21.30;68.50;;;;;;5009903;28;20075;-52
2023/10/04 11:45:23;;;;;;;8.00;2.75;;;21.30;67.80;;;;;;5009906;28;20034;-56
2023/10/04 11:48:01;;;;;;;9.15;2.75;;;21.30;67.80;;;;;;5009378;28;20029;-57
2023/10/04 11:50:47;;;;;;;8.88;2.78;;;21.30;67.80;;;;;;5011155;28;20041;-57
2023/10/04 11:53:33;;;;;;;14.30;3.30;;;21.30;67.80;;;;;;5010800;28;20033;-58
2023/10/04 11:56:01;;;;;;;9.90;3.28;;;21.30;67.80;;;;;;5010987;28;20030;-57
2023/10/04 11:58:33;;;;;;;10.80;2.60;;;21.30;67.80;;;;;;5010903;28;20443;-56
2023/10/04 12:01:11;;;;;;;10.63;3.40;;;21.30;67.80;;;;;;5011075;28;20069;-55
2023/10/04 12:03:37;;;;;;;8.70;3.30;;;21.30;67.70;;;;;;5010590;28;20485;-58
2023/10/04 12:06:04;;;;;;;10.25;3.20;;;21.30;67.70;;;;;;5011056;28;20026;-55
2023/10/04 12:08:30;;;;;;;8.18;2.88;;;21.30;67.70;;;;;;5010570;28;20030;-57
2023/10/04 12:10:56;;;;;;;7.53;2.88;;;21.30;67.70;;;;;;5010300;28;20087;-55
2023/10/04 12:13:23;;;;;;;8.00;3.40;;;21.30;67.60;;;;;;5010266;28;20057;-58
2023/10/04 12:15:49;;;;;;;9.25;3.20;;;21.30;67.60;;;;;;5010687;28;20034;-54
2023/10/04 12:18:15;;;;;;;8.52;2.97;;;21.30;67.60;;;;;;5010263;28;20034;-58
2023/10/04 12:20:42;;;;;;;6.78;2.80;;;21.30;67.60;;;;;;5010872;28;20083;-52
2023/10/04 12:23:10;;;;;;;9.02;3.03;;;21.30;67.60;;;;;;5010253;28;20123;-50
2023/10/04 12:25:42;;;;;;;9.30;3.03;;;21.30;67.50;;;;;;4992834;28;20049;-58
2023/10/04 12:28:08;;;;;;;7.97;2.90;;;21.30;67.50;;;;;;5010424;28;20382;-56
2023/10/04 12:30:35;;;;;;;8.65;3.10;;;21.30;67.40;;;;;;5010338;28;20573;-58
2023/10/04 12:33:02;;;;;;;7.25;2.95;;;21.30;67.40;;;;;;5009974;28;20082;-55
2023/10/04 12:35:28;;;;;;;7.55;2.80;;;21.30;67.40;;;;;;5010357;28;20057;-55
2023/10/04 12:37:54;;;;;;;8.50;3.13;;;21.30;67.40;;;;;;5010196;28;20033;-58
2023/10/04 12:40:25;;;;;;;7.13;2.60;;;21.30;67.40;;;;;;5010475;28;20307;-58
2023/10/04 12:42:52;;;;;;;8.48;3.22;;;21.30;67.30;;;;;;5010052;28;20030;-58
2023/10/04 12:45:19;;;;;;;7.93;2.83;;;21.40;67.40;;;;;;5009234;28;20029;-58
2023/10/04 12:47:46;;;;;;;8.25;2.72;;;21.30;67.30;;;;;;5009966;28;20522;-57
2023/10/04 12:50:15;;;;;;;7.95;2.83;;;21.30;67.30;;;;;;5010441;28;20136;-57
2023/10/04 12:52:42;;;;;;;9.07;2.78;;;21.30;67.20;;;;;;5010101;28;20022;-58
2023/10/04 12:55:11;;;;;;;7.40;2.55;;;21.30;67.30;;;;;;5010209;28;20030;-58
2023/10/04 12:57:38;;;;;;;7.22;2.67;;;21.30;67.20;;;;;;5010072;28;20030;-57